Terminal Aerodrome Forecast
Issued by NWS Raleigh/Durham, NC

Home | Current Version | Previous Version | Text Only | Print | Product List | Glossary On
Versions: 1 2 3 4 5 6 7 8 9 10 11 12 13 14
000
FTUS42 KRAH 240540
TAFRDU
TAF
KRDU 240540Z 2406/2506 09012G20KT 4SM RA SCT008 BKN025 OVC050
     FM240800 09012G20KT 3SM RA BR SCT007 BKN012 OVC020
     FM241100 09012G20KT 3SM RA BR BKN008 OVC012
      TEMPO 2412/2415 OVC007
     FM242200 10009KT P6SM BKN010 BKN025=

USA.gov is the U.S. government's official web portal to all federal, state and local government web resources and services.